Terminal Aerodrome Forecast
Issued by NWS

Home | Current Version | Previous Version | Text Only | Print | Product List | Glossary On
Versions: 1 2 3 4 5 6 7 8 9 10 11 12 13
000
FTUS46 KSTO 152338
TAFRBL
TAF
KRBL 152338Z 1600/1624 VRB04KT P6SM OVC200
     FM160200 30008KT P6SM OVC200
     FM161100 34019G26KT P6SM SKC
     FM161700 35022G30KT P6SM SKC=

USA.gov is the U.S. government's official web portal to all federal, state and local government web resources and services.